createdAt,value
2023-09-29T00:00:17.369Z,9.60
2023-09-29T00:03:10.355Z,9.90
2023-09-29T00:05:42.665Z,8.70
2023-09-29T00:08:17.947Z,9.00
2023-09-29T00:10:51.318Z,9.00
2023-09-29T00:13:23.230Z,8.70
2023-09-29T00:15:55.156Z,9.20
2023-09-29T00:18:27.999Z,8.60
2023-09-29T00:20:59.940Z,8.80
2023-09-29T00:23:32.102Z,9.00
2023-09-29T00:26:04.512Z,9.30
2023-09-29T00:28:36.643Z,8.50
2023-09-29T00:31:10.046Z,8.50
2023-09-29T00:33:42.065Z,8.90
2023-09-29T00:36:14.417Z,8.00
2023-09-29T00:38:46.389Z,9.40
2023-09-29T00:41:18.697Z,8.80
2023-09-29T00:43:51.415Z,9.60
2023-09-29T00:46:23.553Z,8.20
2023-09-29T00:48:56.291Z,9.50
2023-09-29T00:51:29.338Z,8.30
2023-09-29T00:54:01.949Z,7.90
2023-09-29T00:56:34.938Z,8.40
2023-09-29T00:59:10.687Z,8.20
2023-09-29T01:01:43.078Z,8.90
2023-09-29T01:04:16.489Z,8.20
2023-09-29T01:06:50.390Z,8.70
2023-09-29T01:09:22.888Z,9.10
2023-09-29T01:11:54.829Z,8.60
2023-09-29T01:14:27.101Z,8.40
2023-09-29T01:16:59.471Z,8.60
2023-09-29T01:19:32.866Z,8.50
2023-09-29T01:22:05.335Z,8.60
2023-09-29T01:24:37.246Z,8.80
2023-09-29T01:27:09.120Z,9.10
2023-09-29T01:29:44.101Z,8.90
2023-09-29T01:32:16.231Z,9.30
2023-09-29T01:34:48.101Z,8.70
2023-09-29T01:37:22.678Z,8.60
2023-09-29T01:39:54.877Z,8.40
2023-09-29T01:42:26.752Z,8.70
2023-09-29T01:44:58.783Z,9.20
2023-09-29T01:47:31.613Z,9.20
2023-09-29T01:50:03.786Z,8.80
2023-09-29T01:52:35.748Z,8.50
2023-09-29T01:55:12.517Z,8.70
2023-09-29T02:00:20.824Z,8.70
2023-09-29T02:02:54.665Z,7.60
2023-09-29T02:05:27.407Z,7.70
2023-09-29T02:08:04.471Z,8.20
2023-09-29T02:10:36.505Z,8.20
2023-09-29T02:13:09.094Z,8.60
2023-09-29T02:15:42.243Z,8.80
2023-09-29T02:18:14.269Z,8.40
2023-09-29T02:20:48.729Z,9.90
2023-09-29T02:23:21.325Z,8.60
2023-09-29T02:25:53.289Z,8.90
2023-09-29T02:28:26.307Z,8.30
2023-09-29T02:30:58.235Z,8.80
2023-09-29T02:33:33.188Z,8.00
2023-09-29T02:36:05.248Z,9.10
2023-09-29T02:38:37.756Z,8.60
2023-09-29T02:41:09.680Z,9.40
2023-09-29T02:43:41.657Z,8.70
2023-09-29T02:46:17.888Z,8.80
2023-09-29T02:48:50.082Z,8.40
2023-09-29T02:51:22.555Z,9.60
2023-09-29T02:53:56.112Z,10.10
2023-09-29T02:56:28.162Z,10.00
2023-09-29T02:59:00.728Z,9.60
2023-09-29T03:01:33.655Z,9.60
2023-09-29T03:04:08.598Z,8.90
2023-09-29T03:06:41.232Z,9.90
2023-09-29T03:09:14.896Z,8.70
2023-09-29T03:11:46.879Z,9.90
2023-09-29T03:14:19.037Z,9.50
2023-09-29T03:16:50.983Z,10.00
2023-09-29T03:19:22.926Z,8.80
2023-09-29T03:21:55.009Z,9.30
2023-09-29T03:24:28.659Z,8.80
2023-09-29T03:27:02.633Z,9.20
2023-09-29T03:29:36.654Z,9.30
2023-09-29T03:32:09.659Z,9.10
2023-09-29T03:34:42.882Z,9.70
2023-09-29T03:37:14.882Z,10.60
2023-09-29T03:39:49.176Z,9.20
2023-09-29T03:42:21.490Z,9.30
2023-09-29T03:44:53.532Z,9.20
2023-09-29T03:47:25.505Z,10.00
2023-09-29T03:49:57.727Z,8.80
2023-09-29T03:52:30.874Z,9.40
2023-09-29T03:55:02.883Z,9.20
2023-09-29T03:57:35.995Z,9.40
2023-09-29T04:00:13.262Z,9.80
2023-09-29T04:02:45.825Z,9.80
2023-09-29T04:05:18.608Z,8.80
2023-09-29T04:07:50.492Z,9.00
2023-09-29T04:10:22.737Z,9.20
2023-09-29T04:12:54.706Z,9.40
2023-09-29T04:15:28.475Z,9.30
2023-09-29T04:18:00.466Z,9.60
2023-09-29T04:20:32.849Z,9.90
2023-09-29T04:23:07.839Z,10.10
2023-09-29T04:25:39.959Z,9.70
2023-09-29T04:28:11.838Z,9.30
2023-09-29T04:30:43.807Z,9.40
2023-09-29T04:33:15.875Z,9.40
2023-09-29T04:35:47.954Z,9.80
2023-09-29T04:38:19.876Z,10.80
2023-09-29T04:40:51.914Z,10.10
2023-09-29T04:43:23.861Z,10.80
2023-09-29T04:45:55.736Z,9.90
2023-09-29T04:48:27.739Z,10.10
2023-09-29T04:51:00.188Z,9.20
2023-09-29T04:53:32.162Z,10.60
2023-09-29T04:56:04.616Z,9.10
2023-09-29T04:58:36.528Z,10.30
2023-09-29T05:01:08.454Z,10.50
2023-09-29T05:03:40.611Z,9.80
2023-09-29T05:06:12.744Z,10.80
2023-09-29T05:08:44.694Z,10.30
2023-09-29T05:11:23.934Z,9.50
2023-09-29T05:13:57.294Z,9.80
2023-09-29T05:16:29.209Z,9.50
2023-09-29T05:19:02.268Z,10.20
2023-09-29T05:21:35.737Z,9.60
2023-09-29T05:24:09.710Z,10.30
2023-09-29T05:26:41.711Z,11.60
2023-09-29T05:29:13.863Z,10.00
2023-09-29T05:31:46.624Z,10.80
2023-09-29T05:34:19.346Z,11.20
2023-09-29T05:36:51.298Z,10.10
2023-09-29T05:39:24.504Z,10.60
2023-09-29T05:41:56.423Z,10.90
2023-09-29T05:44:28.913Z,8.90
2023-09-29T05:47:00.972Z,9.60
2023-09-29T05:49:33.704Z,9.30
2023-09-29T05:52:05.847Z,8.90
2023-09-29T05:54:37.895Z,10.10
2023-09-29T05:57:09.936Z,10.20
2023-09-29T05:59:42.092Z,10.40
2023-09-29T06:02:19.243Z,11.60
2023-09-29T06:04:51.560Z,9.90
2023-09-29T06:07:24.038Z,8.90
2023-09-29T06:09:55.935Z,9.90
2023-09-29T06:12:27.836Z,9.70
2023-09-29T06:14:59.833Z,9.00
2023-09-29T06:17:31.968Z,9.70
2023-09-29T06:20:05.378Z,10.00
2023-09-29T06:22:37.269Z,37.00
2023-09-29T06:25:10.617Z,14.80
2023-09-29T06:27:42.784Z,11.30
2023-09-29T06:30:15.410Z,10.90
2023-09-29T06:32:47.513Z,9.80
2023-09-29T06:35:19.608Z,11.50
2023-09-29T06:37:52.624Z,13.30
2023-09-29T06:40:25.252Z,13.10
2023-09-29T06:42:57.162Z,11.10
2023-09-29T06:45:51.798Z,10.20
2023-09-29T06:48:24.921Z,9.50
2023-09-29T06:51:00.576Z,10.10
2023-09-29T06:53:33.531Z,9.30
2023-09-29T06:56:06.130Z,8.90
2023-09-29T06:58:38.161Z,10.40
2023-09-29T07:01:10.241Z,10.00
2023-09-29T07:03:42.430Z,8.60
2023-09-29T07:06:15.109Z,8.70
2023-09-29T07:08:47.499Z,9.20
2023-09-29T07:11:19.954Z,8.10
2023-09-29T07:13:53.164Z,7.00
2023-09-29T07:16:25.627Z,6.80
2023-09-29T07:19:00.416Z,7.20
2023-09-29T07:21:32.379Z,6.90
2023-09-29T07:24:04.399Z,7.00
2023-09-29T07:26:36.653Z,6.10
2023-09-29T07:29:08.794Z,5.70
2023-09-29T07:31:47.924Z,6.50
2023-09-29T07:34:19.880Z,6.30
2023-09-29T07:36:51.964Z,7.00
2023-09-29T07:39:23.965Z,8.00
2023-09-29T07:41:56.827Z,7.10
2023-09-29T07:44:28.822Z,8.30
2023-09-29T07:47:01.194Z,6.90
2023-09-29T07:49:34.512Z,6.40
2023-09-29T07:52:06.740Z,6.80
2023-09-29T07:54:38.953Z,6.20
2023-09-29T07:57:13.820Z,6.00
2023-09-29T07:59:48.152Z,7.60
2023-09-29T08:02:40.889Z,6.50
2023-09-29T08:05:33.345Z,6.20
2023-09-29T08:08:26.598Z,9.00
2023-09-29T08:11:19.017Z,6.60
2023-09-29T08:14:11.657Z,5.70
2023-09-29T08:17:04.159Z,6.70
2023-09-29T08:19:56.405Z,10.00
2023-09-29T08:22:51.091Z,7.20
2023-09-29T08:25:44.560Z,7.70
2023-09-29T08:28:36.721Z,8.60
2023-09-29T08:31:19.192Z,7.00
2023-09-29T08:34:11.823Z,8.20
2023-09-29T08:37:04.492Z,7.70
2023-09-29T08:39:56.728Z,7.30
2023-09-29T08:42:39.207Z,9.20
2023-09-29T08:45:32.680Z,9.80
2023-09-29T08:48:25.282Z,7.70
2023-09-29T08:51:18.526Z,9.00
2023-09-29T08:54:11.936Z,6.80
2023-09-29T08:57:07.163Z,6.90
2023-09-29T09:00:02.062Z,7.10
2023-09-29T09:02:56.183Z,7.10
2023-09-29T09:05:49.182Z,8.00
2023-09-29T09:08:41.973Z,7.50
2023-09-29T09:11:25.598Z,6.90
2023-09-29T09:14:01.113Z,8.00
2023-09-29T09:16:53.513Z,7.20
2023-09-29T09:19:52.317Z,6.90
2023-09-29T09:22:47.275Z,6.90
2023-09-29T09:25:44.396Z,7.20
2023-09-29T09:28:23.451Z,6.60
2023-09-29T09:31:06.253Z,6.80
2023-09-29T09:33:41.448Z,6.60
2023-09-29T09:36:33.696Z,7.20
2023-09-29T09:39:13.274Z,7.30
2023-09-29T09:42:07.081Z,7.40
2023-09-29T09:45:00.129Z,6.50
2023-09-29T09:47:54.046Z,6.50
2023-09-29T09:50:48.576Z,7.00
2023-09-29T09:53:41.554Z,6.10
2023-09-29T09:56:43.334Z,6.60
2023-09-29T09:59:36.089Z,6.70
2023-09-29T10:02:28.866Z,6.00
2023-09-29T10:05:24.925Z,6.30
2023-09-29T10:08:31.546Z,6.50
2023-09-29T10:11:29.442Z,7.20
2023-09-29T10:14:22.684Z,7.20
2023-09-29T10:17:08.351Z,6.70
2023-09-29T10:20:00.881Z,6.90
2023-09-29T10:23:04.225Z,6.30
2023-09-29T10:26:05.459Z,6.00
2023-09-29T10:29:10.264Z,6.20
2023-09-29T10:32:11.799Z,6.30
2023-09-29T10:35:07.030Z,6.20
2023-09-29T10:38:05.326Z,5.60
2023-09-29T10:40:40.259Z,6.90
2023-09-29T10:43:37.106Z,6.20
2023-09-29T10:46:30.450Z,6.00
2023-09-29T10:49:08.978Z,6.10
2023-09-29T10:51:41.110Z,7.00
2023-09-29T10:54:16.036Z,6.20
2023-09-29T10:57:09.515Z,5.70
2023-09-29T11:00:03.120Z,5.60
2023-09-29T11:02:55.580Z,5.50
2023-09-29T11:05:55.158Z,7.20
2023-09-29T11:08:34.237Z,5.80
2023-09-29T11:11:15.682Z,6.10
2023-09-29T11:13:59.982Z,5.90
2023-09-29T11:16:31.986Z,5.20
2023-09-29T11:19:26.570Z,5.80
2023-09-29T11:22:19.004Z,6.40
2023-09-29T11:25:19.329Z,5.60
2023-09-29T11:28:15.040Z,6.90
2023-09-29T11:30:49.947Z,6.00
2023-09-29T11:33:39.105Z,6.00
2023-09-29T11:36:31.509Z,5.70
2023-09-29T11:39:24.190Z,5.60
2023-09-29T11:42:03.154Z,5.60
2023-09-29T11:44:55.585Z,6.10
2023-09-29T11:47:48.302Z,6.00
2023-09-29T11:50:26.722Z,5.50
2023-09-29T11:53:11.103Z,5.90
2023-09-29T11:56:04.467Z,5.50
2023-09-29T11:58:56.677Z,5.50
2023-09-29T12:01:49.128Z,6.30
2023-09-29T12:04:41.405Z,6.20
2023-09-29T12:07:34.080Z,5.60
2023-09-29T12:10:26.735Z,6.00
2023-09-29T12:13:19.061Z,5.90
2023-09-29T12:16:11.764Z,5.70
2023-09-29T12:19:04.130Z,6.40
2023-09-29T12:21:56.746Z,5.60
2023-09-29T12:24:31.768Z,5.70
2023-09-29T12:27:10.258Z,5.70
2023-09-29T12:29:42.526Z,6.60
2023-09-29T12:32:14.751Z,5.80
2023-09-29T12:35:09.216Z,5.40
2023-09-29T12:38:04.364Z,5.80
2023-09-29T12:40:57.071Z,5.50
2023-09-29T12:43:32.237Z,6.20
2023-09-29T12:46:06.855Z,6.30
2023-09-29T12:48:59.785Z,5.80
2023-09-29T12:52:00.665Z,5.50
2023-09-29T12:54:57.981Z,6.70
2023-09-29T12:57:50.557Z,5.80
2023-09-29T13:00:42.845Z,5.70
2023-09-29T13:03:36.919Z,5.10
2023-09-29T13:06:29.284Z,5.50
2023-09-29T13:09:05.299Z,5.30
2023-09-29T13:11:37.378Z,5.10
2023-09-29T13:14:16.883Z,5.30
2023-09-29T13:17:08.941Z,5.60
2023-09-29T13:20:01.170Z,5.70
2023-09-29T13:22:33.226Z,5.60
2023-09-29T13:25:25.457Z,5.90
2023-09-29T13:28:17.681Z,5.70
2023-09-29T13:30:54.636Z,6.00
2023-09-29T13:33:47.476Z,5.50
2023-09-29T13:36:39.887Z,5.30
2023-09-29T13:39:32.202Z,4.90
2023-09-29T13:42:24.428Z,5.60
2023-09-29T13:45:10.159Z,5.60
2023-09-29T13:48:04.603Z,5.30
2023-09-29T13:50:57.030Z,5.60
2023-09-29T13:53:51.341Z,5.80
2023-09-29T13:56:28.627Z,6.30
2023-09-29T13:59:20.911Z,5.40
2023-09-29T14:02:13.240Z,5.90
2023-09-29T14:05:07.375Z,6.30
2023-09-29T14:07:56.620Z,5.80
2023-09-29T14:10:49.024Z,5.00
2023-09-29T14:13:32.670Z,5.10
2023-09-29T14:16:24.933Z,5.60
2023-09-29T14:19:17.294Z,12.90
2023-09-29T14:21:49.766Z,4.50
2023-09-29T14:24:42.191Z,5.20
2023-09-29T14:27:34.447Z,6.40
2023-09-29T14:30:10.897Z,5.60
2023-09-29T14:33:05.732Z,5.30
2023-09-29T14:35:58.288Z,4.20
2023-09-29T14:38:41.401Z,5.10
2023-09-29T14:41:34.087Z,5.40
2023-09-29T14:44:26.367Z,5.50
2023-09-29T14:47:19.041Z,4.90
2023-09-29T14:50:12.467Z,5.40
2023-09-29T14:53:04.843Z,4.50
2023-09-29T14:55:45.793Z,4.90
2023-09-29T14:58:38.972Z,5.00
2023-09-29T15:01:31.369Z,5.00
2023-09-29T15:04:13.241Z,5.70
2023-09-29T15:07:06.015Z,4.90
2023-09-29T15:09:58.111Z,5.20
2023-09-29T15:12:39.152Z,5.40
2023-09-29T15:15:31.564Z,4.50
2023-09-29T15:18:24.108Z,4.30
2023-09-29T15:21:16.606Z,4.60
2023-09-29T15:24:09.595Z,4.70
2023-09-29T15:27:01.896Z,4.90
2023-09-29T15:29:54.158Z,5.30
2023-09-29T15:32:46.880Z,6.50
2023-09-29T15:35:39.619Z,4.50
2023-09-29T15:38:31.828Z,5.20
2023-09-29T15:41:24.065Z,4.50
2023-09-29T15:44:17.340Z,5.40
2023-09-29T15:47:09.603Z,4.70
2023-09-29T15:49:51.758Z,4.70
2023-09-29T15:52:45.363Z,5.40
2023-09-29T15:55:20.551Z,5.10
2023-09-29T15:58:13.321Z,4.90
2023-09-29T16:00:45.493Z,5.30
2023-09-29T16:03:38.002Z,5.60
2023-09-29T16:06:30.591Z,5.60
2023-09-29T16:09:22.936Z,5.70
2023-09-29T16:12:15.633Z,5.80
2023-09-29T16:15:04.439Z,5.30
2023-09-29T16:17:46.339Z,5.60
2023-09-29T16:20:18.639Z,5.70
2023-09-29T16:23:11.120Z,6.10
2023-09-29T16:26:04.224Z,6.40
2023-09-29T16:28:56.934Z,5.80
2023-09-29T16:31:49.200Z,6.60
2023-09-29T16:34:41.431Z,6.00
2023-09-29T16:37:34.454Z,6.60
2023-09-29T16:40:28.923Z,6.70
2023-09-29T16:45:57.200Z,7.10
2023-09-29T16:48:53.914Z,9.40
2023-09-29T16:51:47.011Z,12.50
2023-09-29T16:54:40.326Z,11.60
2023-09-29T16:57:33.756Z,14.90
2023-09-29T17:00:26.299Z,21.10
2023-09-29T17:03:18.795Z,22.20
2023-09-29T17:05:53.604Z,23.30
2023-09-29T17:08:28.592Z,24.20
2023-09-29T17:11:21.395Z,21.80
2023-09-29T17:14:14.395Z,19.40
2023-09-29T17:17:04.718Z,16.50
2023-09-29T17:19:57.194Z,15.50
2023-09-29T17:22:49.471Z,15.00
2023-09-29T17:25:33.052Z,14.00
2023-09-29T17:28:08.096Z,13.20
2023-09-29T17:31:00.410Z,13.30
2023-09-29T17:33:52.771Z,13.70
2023-09-29T17:36:27.895Z,12.10
2023-09-29T17:39:20.289Z,11.20
2023-09-29T17:42:12.755Z,10.30
2023-09-29T17:44:47.812Z,10.00
2023-09-29T17:47:22.757Z,11.00
2023-09-29T17:50:13.497Z,9.60
2023-09-29T17:52:56.775Z,11.60
2023-09-29T17:55:35.543Z,10.30
2023-09-29T17:58:10.451Z,10.90
2023-09-29T18:00:45.830Z,10.40
2023-09-29T18:03:39.518Z,10.70
2023-09-29T18:06:32.615Z,12.60
2023-09-29T18:09:25.073Z,11.70
2023-09-29T18:12:17.541Z,11.20
2023-09-29T18:14:53.081Z,11.30
2023-09-29T18:17:46.190Z,10.70
2023-09-29T18:20:28.152Z,10.70
2023-09-29T18:23:03.444Z,10.60
2023-09-29T18:25:37.299Z,9.80
2023-09-29T18:28:32.671Z,12.90
2023-09-29T18:31:26.441Z,13.40
2023-09-29T18:34:09.216Z,13.70
2023-09-29T18:36:55.461Z,12.90
2023-09-29T18:39:48.269Z,13.80
2023-09-29T18:42:21.028Z,13.50
2023-09-29T18:44:54.059Z,13.30
2023-09-29T18:47:31.025Z,12.60
2023-09-29T18:50:14.247Z,11.80
2023-09-29T18:52:57.608Z,12.50
2023-09-29T18:55:34.968Z,12.70
2023-09-29T18:58:13.095Z,12.40
2023-09-29T19:00:49.428Z,11.20
2023-09-29T19:03:28.012Z,12.30
2023-09-29T19:06:22.299Z,12.50
2023-09-29T19:08:57.670Z,12.70
2023-09-29T19:11:33.396Z,11.20
2023-09-29T19:14:12.147Z,11.50
2023-09-29T19:16:47.186Z,11.30
2023-09-29T19:19:26.026Z,11.30
2023-09-29T19:22:02.026Z,12.40
2023-09-29T19:24:42.415Z,12.10
2023-09-29T19:27:16.186Z,12.00
2023-09-29T19:29:53.808Z,14.00
2023-09-29T19:32:34.455Z,12.30
2023-09-29T19:35:10.940Z,11.90
2023-09-29T19:37:44.945Z,12.10
2023-09-29T19:40:18.643Z,11.80
2023-09-29T19:42:55.653Z,12.10
2023-09-29T19:45:28.422Z,11.70
2023-09-29T19:48:01.166Z,12.60
2023-09-29T19:50:33.463Z,13.20
2023-09-29T19:53:08.964Z,12.60
2023-09-29T19:55:43.241Z,13.20
2023-09-29T19:58:18.569Z,13.20
2023-09-29T20:00:53.483Z,13.10
2023-09-29T20:03:25.904Z,11.20
2023-09-29T20:05:58.329Z,11.70
2023-09-29T20:08:51.714Z,11.80
2023-09-29T20:11:26.371Z,12.20
2023-09-29T20:13:59.682Z,11.50
2023-09-29T20:16:32.910Z,11.80
2023-09-29T20:19:08.315Z,12.30
2023-09-29T20:21:43.484Z,12.60
2023-09-29T20:24:19.677Z,12.30
2023-09-29T20:26:53.114Z,12.70
2023-09-29T20:29:25.427Z,12.40
2023-09-29T20:32:01.332Z,12.40
2023-09-29T20:34:33.378Z,13.50
2023-09-29T20:37:05.500Z,12.70
2023-09-29T20:39:39.168Z,13.20
2023-09-29T20:42:13.871Z,15.40
2023-09-29T20:44:46.642Z,13.80
2023-09-29T20:47:18.676Z,13.60
2023-09-29T20:49:51.305Z,12.70
2023-09-29T20:52:24.804Z,13.00
2023-09-29T20:54:57.772Z,13.80
2023-09-29T20:57:30.152Z,13.30
2023-09-29T21:00:02.517Z,12.90
2023-09-29T21:02:34.876Z,12.20
2023-09-29T21:05:07.928Z,12.50
2023-09-29T21:07:39.968Z,11.80
2023-09-29T21:10:14.439Z,12.00
2023-09-29T21:12:46.376Z,12.80
2023-09-29T21:15:18.507Z,12.70
2023-09-29T21:17:50.606Z,12.00
2023-09-29T21:20:22.956Z,12.00
2023-09-29T21:22:54.938Z,11.70
2023-09-29T21:25:27.388Z,12.40
2023-09-29T21:27:59.586Z,11.60
2023-09-29T21:30:32.272Z,11.60
2023-09-29T21:33:04.571Z,11.70
2023-09-29T21:35:39.123Z,11.20
2023-09-29T21:38:14.410Z,11.70
2023-09-29T21:40:46.372Z,11.70
2023-09-29T21:43:18.554Z,10.80
2023-09-29T21:45:50.532Z,11.20
2023-09-29T21:48:22.644Z,11.20
2023-09-29T21:50:54.884Z,11.40
2023-09-29T21:53:26.910Z,10.60
2023-09-29T21:55:58.810Z,10.60
2023-09-29T21:58:31.650Z,11.60
2023-09-29T22:01:04.067Z,10.30
2023-09-29T22:03:37.881Z,10.40
2023-09-29T22:06:10.338Z,11.80
2023-09-29T22:08:43.641Z,10.90
2023-09-29T22:11:15.894Z,10.70
2023-09-29T22:13:48.107Z,11.80
2023-09-29T22:16:20.323Z,10.40
2023-09-29T22:18:52.974Z,11.10
2023-09-29T22:21:25.930Z,11.80
2023-09-29T22:23:58.283Z,11.50
2023-09-29T22:26:30.513Z,11.10
2023-09-29T22:29:03.082Z,11.10
2023-09-29T22:31:35.376Z,11.70
2023-09-29T22:34:07.842Z,11.20
2023-09-29T22:36:39.925Z,12.00
2023-09-29T22:39:12.012Z,10.60
2023-09-29T22:41:45.338Z,12.30
2023-09-29T22:44:17.350Z,12.40
2023-09-29T22:46:51.186Z,12.20
2023-09-29T22:49:23.986Z,11.70
2023-09-29T22:51:55.914Z,11.50
2023-09-29T22:54:27.926Z,11.80
2023-09-29T22:56:59.857Z,11.30
2023-09-29T22:59:31.975Z,11.70
2023-09-29T23:02:12.676Z,10.70
2023-09-29T23:04:44.607Z,12.80
2023-09-29T23:07:16.538Z,11.90
2023-09-29T23:09:48.495Z,12.80
2023-09-29T23:12:20.551Z,10.90
2023-09-29T23:14:52.601Z,10.60
2023-09-29T23:17:24.566Z,11.30
2023-09-29T23:19:56.460Z,11.30
2023-09-29T23:22:29.363Z,11.30
2023-09-29T23:25:01.330Z,11.30
2023-09-29T23:27:34.591Z,11.40
2023-09-29T23:30:09.930Z,11.10
2023-09-29T23:32:42.025Z,11.50
2023-09-29T23:35:14.231Z,10.30
2023-09-29T23:37:46.322Z,11.80
2023-09-29T23:40:18.865Z,10.20
2023-09-29T23:42:50.970Z,10.30
2023-09-29T23:45:22.995Z,11.20
2023-09-29T23:47:54.936Z,11.20
2023-09-29T23:50:27.374Z,10.60
2023-09-29T23:52:59.361Z,11.00
2023-09-29T23:55:31.364Z,10.70
2023-09-29T23:58:03.418Z,11.90
